Time;durP1;ratioP1;P1;durP2;ratioP2;P2;SDS_P1;SDS_P2;PMS_P1;PMS_P2;Temp;Humidity;BMP_temperature;BMP_pressure;BME280_temperature;BME280_humidity;BME280_pressure;Samples;Min_cycle;Max_cycle;Signal;HPM_P1;HPM_P2
2024/02/16 00:02:15;;;;;;;4.93;2.73;;;13.40;99.90;;;;;;5055023;28;20430;-81
2024/02/16 00:04:41;;;;;;;3.03;2.73;;;13.40;99.90;;;;;;5061410;28;20482;-81
2024/02/16 00:07:07;;;;;;;5.97;2.77;;;13.40;99.90;;;;;;5065126;28;20473;-81
2024/02/16 00:09:33;;;;;;;3.10;2.60;;;13.40;99.90;;;;;;5064362;28;20468;-80
2024/02/16 00:12:01;;;;;;;3.07;2.40;;;13.40;99.90;;;;;;5050588;28;20433;-80
2024/02/16 00:14:27;;;;;;;2.70;2.50;;;13.40;99.90;;;;;;5064493;28;20930;-80
2024/02/16 00:16:57;;;;;;;3.20;2.90;;;13.40;99.90;;;;;;5068550;28;20520;-81
2024/02/16 00:19:25;;;;;;;3.30;2.40;;;13.40;99.90;;;;;;5066466;28;20427;-80
2024/02/16 00:21:51;;;;;;;2.53;2.33;;;13.40;99.90;;;;;;5052776;28;20503;-80
2024/02/16 00:24:17;;;;;;;3.83;2.60;;;13.40;99.90;;;;;;5075334;28;20935;-80
2024/02/16 00:26:46;;;;;;;2.87;2.60;;;13.40;99.90;;;;;;5056162;28;20188;-80
2024/02/16 00:29:14;;;;;;;3.00;2.37;;;13.40;99.90;;;;;;5055512;28;20204;-79
2024/02/16 00:31:40;;;;;;;3.87;2.70;;;13.40;99.90;;;;;;5044803;28;20435;-81
2024/02/16 00:34:08;;;;;;;2.80;2.60;;;13.40;99.90;;;;;;5053340;28;20437;-80
2024/02/16 00:36:36;;;;;;;3.70;2.80;;;13.40;99.90;;;;;;5057829;28;21083;-80
2024/02/16 00:39:07;;;;;;;4.97;2.83;;;13.40;99.90;;;;;;5057000;28;20896;-80
2024/02/16 00:41:33;;;;;;;3.17;2.87;;;13.40;99.90;;;;;;5057696;28;20858;-80
2024/02/16 00:43:59;;;;;;;3.00;2.30;;;13.40;99.90;;;;;;5056507;28;20565;-80
2024/02/16 00:46:25;;;;;;;4.10;2.73;;;13.40;99.90;;;;;;5057952;28;20199;-81
2024/02/16 00:48:54;;;;;;;4.67;2.70;;;13.40;99.90;;;;;;5056628;28;21345;-81
2024/02/16 00:51:20;;;;;;;3.33;3.03;;;13.40;99.90;;;;;;5059038;28;20427;-80
2024/02/16 00:53:46;;;;;;;3.10;2.80;;;13.40;99.90;;;;;;5047260;28;20438;-80
2024/02/16 00:56:14;;;;;;;3.50;2.60;;;13.40;99.90;;;;;;5049119;28;20434;-79
2024/02/16 00:58:45;;;;;;;2.67;2.47;;;13.40;99.90;;;;;;5038132;28;20821;-80
2024/02/16 01:01:12;;;;;;;5.30;2.97;;;13.40;99.90;;;;;;5048050;28;20923;-81
2024/02/16 01:03:42;;;;;;;2.97;2.20;;;13.40;99.90;;;;;;5058633;28;20485;-81
2024/02/16 01:06:11;;;;;;;3.57;2.60;;;13.40;99.90;;;;;;5062335;28;20441;-81
2024/02/16 01:08:36;;;;;;;2.43;2.23;;;13.40;99.90;;;;;;5061461;28;20458;-80
2024/02/16 01:11:03;;;;;;;3.30;2.40;;;13.40;99.90;;;;;;5042408;28;20481;-81
2024/02/16 01:13:29;;;;;;;5.57;2.70;;;13.40;99.90;;;;;;5050320;28;20438;-80
2024/02/16 01:15:57;;;;;;;3.03;2.80;;;13.40;99.90;;;;;;5053530;28;20426;-80
2024/02/16 01:18:25;;;;;;;5.17;2.80;;;13.40;99.90;;;;;;5037160;28;20569;-81
2024/02/16 01:20:53;;;;;;;3.03;2.70;;;13.40;99.90;;;;;;5055117;28;20757;-81
2024/02/16 01:23:20;;;;;;;3.13;2.60;;;13.40;99.90;;;;;;5049947;28;20470;-80
2024/02/16 01:25:46;;;;;;;4.87;2.63;;;13.40;99.90;;;;;;5055089;28;20447;-81
2024/02/16 01:28:12;;;;;;;7.03;2.90;;;13.30;99.90;;;;;;5053540;28;20422;-80
2024/02/16 01:30:40;;;;;;;3.13;2.50;;;13.40;99.90;;;;;;5016384;28;20423;-80
2024/02/16 01:33:06;;;;;;;3.67;2.50;;;13.40;99.90;;;;;;5043780;28;20777;-81
2024/02/16 01:35:35;;;;;;;2.90;2.60;;;13.40;99.90;;;;;;5047735;28;20190;-81
2024/02/16 01:38:03;;;;;;;5.97;2.57;;;13.40;99.90;;;;;;5048416;28;20761;-81
2024/02/16 01:40:29;;;;;;;4.47;2.73;;;13.40;99.90;;;;;;5027618;28;20435;-81
2024/02/16 01:42:57;;;;;;;2.40;2.20;;;13.40;99.90;;;;;;5059435;28;20432;-81
2024/02/16 01:45:23;;;;;;;5.20;2.60;;;13.40;99.90;;;;;;5051520;28;20462;-81
2024/02/16 01:47:51;;;;;;;2.90;2.70;;;13.40;99.90;;;;;;5042637;28;20464;-79
2024/02/16 01:50:21;;;;;;;8.43;3.37;;;13.40;99.90;;;;;;5042454;28;20977;-81
2024/02/16 01:52:51;;;;;;;4.30;2.83;;;13.40;99.90;;;;;;5050642;28;20500;-80
2024/02/16 01:55:20;;;;;;;3.00;2.70;;;13.40;99.90;;;;;;5050396;28;20509;-80
2024/02/16 01:57:48;;;;;;;2.93;2.70;;;13.40;99.90;;;;;;5051985;28;20637;-80
2024/02/16 02:00:17;;;;;;;2.70;2.50;;;13.40;99.90;;;;;;5043900;28;20496;-80
2024/02/16 02:02:45;;;;;;;4.20;2.77;;;13.40;99.90;;;;;;5051268;28;20450;-81
2024/02/16 02:05:14;;;;;;;3.10;2.63;;;13.40;99.90;;;;;;5054993;28;20441;-80
2024/02/16 02:07:43;;;;;;;3.30;2.40;;;13.40;99.90;;;;;;5033881;28;20789;-80
2024/02/16 02:10:12;;;;;;;2.70;2.50;;;13.40;99.90;;;;;;5055737;28;20511;-81
2024/02/16 02:12:42;;;;;;;3.37;2.87;;;13.40;99.90;;;;;;5048017;28;20467;-81
2024/02/16 02:15:08;;;;;;;2.70;2.50;;;13.40;99.90;;;;;;5054423;28;20500;-81
2024/02/16 02:17:38;;;;;;;3.13;2.90;;;13.40;99.90;;;;;;5052594;28;20434;-80
2024/02/16 02:20:07;;;;;;;5.23;2.87;;;13.40;99.90;;;;;;5042870;28;20779;-80
2024/02/16 02:22:33;;;;;;;3.10;2.40;;;13.40;99.90;;;;;;5053851;28;20442;-80
2024/02/16 02:24:59;;;;;;;3.87;2.47;;;13.40;99.90;;;;;;5058230;28;20470;-79
2024/02/16 02:27:28;;;;;;;3.00;2.70;;;13.40;99.90;;;;;;5047684;28;20184;-80
2024/02/16 02:29:53;;;;;;;3.70;2.20;;;13.40;99.90;;;;;;5045784;28;20462;-80
2024/02/16 02:32:19;;;;;;;3.63;3.30;;;13.40;99.90;;;;;;5053363;28;20419;-81
2024/02/16 02:34:45;;;;;;;5.20;2.67;;;13.40;99.90;;;;;;5051251;28;20439;-80
2024/02/16 02:37:12;;;;;;;2.83;2.50;;;13.40;99.90;;;;;;5067959;28;20192;-81
2024/02/16 02:39:38;;;;;;;2.57;2.10;;;13.40;99.90;;;;;;5048776;28;20275;-81
2024/02/16 02:42:08;;;;;;;4.10;3.10;;;13.40;99.90;;;;;;5051550;28;20438;-80
2024/02/16 02:44:34;;;;;;;3.20;2.70;;;13.40;99.90;;;;;;5033320;28;20569;-80
2024/02/16 02:47:02;;;;;;;3.67;2.90;;;13.40;99.90;;;;;;5043106;28;20474;-81
2024/02/16 02:49:34;;;;;;;3.07;2.37;;;13.40;99.90;;;;;;5052703;28;20441;-80
2024/02/16 02:52:04;;;;;;;3.90;2.40;;;13.40;99.90;;;;;;5035910;28;20852;-80
2024/02/16 02:54:32;;;;;;;4.30;2.83;;;13.40;99.90;;;;;;5063413;28;20509;-79
2024/02/16 02:56:58;;;;;;;2.93;2.60;;;13.40;99.90;;;;;;5061618;28;20450;-81
2024/02/16 02:59:26;;;;;;;3.77;3.00;;;13.40;99.90;;;;;;5056285;28;20438;-80
2024/02/16 03:01:52;;;;;;;4.77;3.00;;;13.40;99.90;;;;;;5055843;28;20445;-81
2024/02/16 03:04:18;;;;;;;6.00;2.50;;;13.40;99.90;;;;;;5053040;28;20470;-81
2024/02/16 03:06:46;;;;;;;2.77;2.57;;;13.40;99.90;;;;;;5053532;28;20311;-80
2024/02/16 03:09:12;;;;;;;2.80;2.60;;;13.40;99.90;;;;;;5052273;28;20465;-81
2024/02/16 03:11:39;;;;;;;3.70;2.93;;;13.40;99.90;;;;;;5049381;28;21027;-79
2024/02/16 03:14:05;;;;;;;3.53;3.00;;;13.40;99.90;;;;;;5055298;28;20483;-80
2024/02/16 03:16:32;;;;;;;2.87;2.57;;;13.40;99.90;;;;;;5056785;28;20971;-80
2024/02/16 03:19:00;;;;;;;3.40;2.90;;;13.40;99.90;;;;;;5045793;28;20447;-81
2024/02/16 03:21:27;;;;;;;3.30;3.00;;;13.40;99.90;;;;;;5055053;28;20509;-81
2024/02/16 03:23:53;;;;;;;3.23;2.70;;;13.40;99.90;;;;;;5054578;28;20892;-80
2024/02/16 03:26:20;;;;;;;3.67;2.80;;;13.40;99.90;;;;;;5060137;28;20430;-81
2024/02/16 03:28:49;;;;;;;3.93;3.13;;;13.40;99.90;;;;;;5051833;28;20526;-81
2024/02/16 03:31:20;;;;;;;4.13;3.77;;;13.40;99.90;;;;;;5057708;28;20422;-80
2024/02/16 03:33:49;;;;;;;3.90;3.50;;;13.40;99.90;;;;;;5042675;28;20500;-81
2024/02/16 03:36:19;;;;;;;4.23;2.63;;;13.40;99.90;;;;;;5055647;28;21092;-81
2024/02/16 03:38:51;;;;;;;2.87;2.60;;;13.40;99.90;;;;;;5031948;28;20450;-81
2024/02/16 03:41:21;;;;;;;4.43;2.70;;;13.40;99.90;;;;;;5048170;28;20443;-80
2024/02/16 03:43:50;;;;;;;3.10;2.60;;;13.40;99.90;;;;;;5062809;28;20523;-81
2024/02/16 03:46:16;;;;;;;6.40;3.50;;;13.40;99.90;;;;;;5058210;28;20823;-80
2024/02/16 03:48:44;;;;;;;4.50;3.10;;;13.30;99.90;;;;;;5050475;28;20443;-81
2024/02/16 03:51:12;;;;;;;4.10;2.97;;;13.40;99.90;;;;;;5054875;28;20439;-81
2024/02/16 03:53:39;;;;;;;4.03;2.80;;;13.40;99.90;;;;;;5058577;28;20446;-81
2024/02/16 03:56:07;;;;;;;3.40;3.10;;;13.30;99.90;;;;;;5049264;28;20430;-81
2024/02/16 03:58:36;;;;;;;4.00;3.30;;;13.30;99.90;;;;;;5062541;28;20426;-81
2024/02/16 04:01:02;;;;;;;5.10;2.97;;;13.40;99.90;;;;;;5063584;28;20437;-80
2024/02/16 04:03:31;;;;;;;2.80;2.50;;;13.40;99.90;;;;;;5095631;23;20530;-81
2024/02/16 04:06:04;;;;;;;3.43;3.13;;;13.30;99.90;;;;;;5015718;28;20514;-81
2024/02/16 04:08:34;;;;;;;3.00;2.67;;;13.30;99.90;;;;;;5032036;28;20447;-81
2024/02/16 04:11:02;;;;;;;3.40;3.10;;;13.30;99.90;;;;;;5011869;28;20794;-80
2024/02/16 04:13:28;;;;;;;3.50;3.00;;;13.40;99.90;;;;;;4997828;28;20458;-81
2024/02/16 04:15:56;;;;;;;3.33;2.80;;;13.40;99.90;;;;;;5029517;28;20447;-81
2024/02/16 04:18:24;;;;;;;3.40;3.10;;;13.30;99.90;;;;;;5030308;28;20430;-81
2024/02/16 04:20:53;;;;;;;7.53;3.27;;;13.40;99.90;;;;;;5048642;28;20538;-81
2024/02/16 04:23:18;;;;;;;3.10;2.50;;;13.40;99.90;;;;;;5031386;28;20471;-81
2024/02/16 04:25:44;;;;;;;3.80;2.90;;;13.40;99.90;;;;;;5052055;28;20427;-79
2024/02/16 04:28:10;;;;;;;4.00;2.90;;;13.40;99.90;;;;;;5031155;28;20504;-80
2024/02/16 04:30:36;;;;;;;3.80;2.93;;;13.40;99.90;;;;;;5028363;28;20438;-81
2024/02/16 04:33:04;;;;;;;5.93;2.90;;;13.30;99.90;;;;;;5031969;28;20180;-81
2024/02/16 04:35:35;;;;;;;3.83;3.27;;;13.40;99.90;;;;;;5031283;28;20496;-80
2024/02/16 04:38:01;;;;;;;3.30;3.03;;;13.40;99.90;;;;;;5026415;28;20435;-81
2024/02/16 04:40:27;;;;;;;2.97;2.70;;;13.40;99.90;;;;;;5048584;28;20419;-80
2024/02/16 04:42:53;;;;;;;6.40;3.17;;;13.40;99.90;;;;;;5033561;28;20242;-81
2024/02/16 04:45:19;;;;;;;4.53;2.90;;;13.30;99.90;;;;;;5030385;28;20580;-79
2024/02/16 04:47:45;;;;;;;3.60;3.30;;;13.40;99.90;;;;;;5031496;28;20549;-81
2024/02/16 04:50:16;;;;;;;3.90;2.90;;;13.30;99.90;;;;;;5013866;28;20461;-79
2024/02/16 04:52:43;;;;;;;3.40;3.10;;;13.30;99.90;;;;;;5029348;28;20488;-81
2024/02/16 04:55:09;;;;;;;3.20;2.90;;;13.30;99.90;;;;;;5028872;28;20435;-80
2024/02/16 04:57:38;;;;;;;5.30;3.10;;;13.40;99.90;;;;;;5029897;28;20947;-80
2024/02/16 05:00:06;;;;;;;3.17;2.87;;;13.30;99.90;;;;;;4998859;28;20422;-80
2024/02/16 05:02:35;;;;;;;4.03;3.20;;;13.30;99.90;;;;;;5018388;28;20511;-81
2024/02/16 05:05:01;;;;;;;4.17;3.07;;;13.30;99.90;;;;;;5040565;28;20489;-81
2024/02/16 05:07:33;;;;;;;2.97;2.67;;;13.30;99.90;;;;;;5049155;28;20427;-82
2024/02/16 05:09:59;;;;;;;2.90;2.70;;;13.30;99.90;;;;;;5015868;28;21121;-81
2024/02/16 05:12:26;;;;;;;3.00;2.70;;;13.40;99.90;;;;;;5031142;28;20453;-81
2024/02/16 05:14:52;;;;;;;4.70;4.20;;;13.30;99.90;;;;;;5002366;28;20439;-81
2024/02/16 05:17:19;;;;;;;2.70;2.50;;;13.30;99.90;;;;;;5048586;28;20438;-81
2024/02/16 05:19:45;;;;;;;3.23;2.70;;;13.30;99.90;;;;;;5027445;28;20478;-80
2024/02/16 05:22:11;;;;;;;3.30;2.87;;;13.30;99.90;;;;;;5031014;28;20742;-80
2024/02/16 05:24:37;;;;;;;4.13;3.03;;;13.30;99.90;;;;;;5016283;28;20470;-81
2024/02/16 05:27:03;;;;;;;4.63;3.30;;;13.30;99.90;;;;;;5014204;28;20434;-81
2024/02/16 05:29:32;;;;;;;7.23;3.30;;;13.30;99.90;;;;;;5048338;28;20195;-79
2024/02/16 05:32:00;;;;;;;3.53;2.90;;;13.30;99.90;;;;;;5048197;28;20543;-81
2024/02/16 05:34:32;;;;;;;2.80;2.60;;;13.30;99.90;;;;;;5028720;28;20423;-80
2024/02/16 05:36:58;;;;;;;2.83;2.63;;;13.30;99.90;;;;;;5048293;28;20442;-81
2024/02/16 05:39:26;;;;;;;4.20;3.33;;;13.30;99.90;;;;;;5024070;28;20529;-80
2024/02/16 05:41:53;;;;;;;4.00;2.80;;;13.30;99.90;;;;;;5014072;28;20922;-79
2024/02/16 05:44:19;;;;;;;3.13;2.83;;;13.30;99.90;;;;;;5048453;28;20585;-80
2024/02/16 05:46:45;;;;;;;3.70;3.40;;;13.30;99.90;;;;;;5046308;28;20453;-81
2024/02/16 05:49:11;;;;;;;4.00;2.93;;;13.30;99.90;;;;;;5025916;28;21008;-80
2024/02/16 05:51:41;;;;;;;5.43;3.33;;;13.30;99.90;;;;;;5047667;28;20465;-80
2024/02/16 05:54:10;;;;;;;3.27;2.70;;;13.30;99.90;;;;;;5043537;28;20442;-80
2024/02/16 05:56:39;;;;;;;3.07;2.77;;;13.30;99.90;;;;;;5027821;28;20452;-80
2024/02/16 05:59:05;;;;;;;3.10;2.80;;;13.30;99.90;;;;;;5047042;28;20500;-80
2024/02/16 06:01:39;;;;;;;3.43;3.07;;;13.30;99.90;;;;;;5047111;28;20427;-80
2024/02/16 06:04:30;;;;;;;4.23;3.20;;;13.30;99.90;;;;;;5025318;28;20481;-80
2024/02/16 06:06:56;;;;;;;5.57;2.80;;;13.30;99.90;;;;;;5010746;28;20424;-80
2024/02/16 06:09:22;;;;;;;3.57;3.27;;;13.30;99.90;;;;;;5046371;28;20836;-80
2024/02/16 06:12:15;;;;;;;5.00;3.60;;;13.30;99.90;;;;;;5029940;28;20629;-80
2024/02/16 06:14:50;;;;;;;5.20;3.10;;;13.30;99.90;;;;;;5012949;28;20219;-82
2024/02/16 06:17:16;;;;;;;3.50;2.73;;;13.30;99.90;;;;;;5012198;28;20465;-81
2024/02/16 06:19:43;;;;;;;3.40;3.10;;;13.30;99.90;;;;;;5021218;28;20438;-81
2024/02/16 06:22:10;;;;;;;3.77;3.40;;;13.30;99.90;;;;;;5026325;28;20547;-81
2024/02/16 06:24:38;;;;;;;3.03;2.83;;;13.30;99.90;;;;;;5030315;28;20475;-81
2024/02/16 06:27:04;;;;;;;3.17;2.97;;;13.30;99.90;;;;;;5052697;28;20442;-81
2024/02/16 06:29:34;;;;;;;3.67;2.90;;;13.30;99.90;;;;;;5020264;28;20451;-82
2024/02/16 06:32:02;;;;;;;3.00;2.70;;;13.30;99.90;;;;;;5029433;28;20431;-82
2024/02/16 06:34:28;;;;;;;7.30;3.00;;;13.30;99.90;;;;;;5013848;28;20786;-82
2024/02/16 06:36:56;;;;;;;4.13;3.17;;;13.30;99.90;;;;;;5051386;28;20470;-82
2024/02/16 06:39:26;;;;;;;3.10;2.80;;;13.30;99.90;;;;;;5050261;28;20467;-83
2024/02/16 06:41:54;;;;;;;3.83;3.07;;;13.30;99.90;;;;;;5027325;28;21110;-83
2024/02/16 06:44:20;;;;;;;4.53;3.03;;;13.30;99.90;;;;;;5049130;28;20481;-83
2024/02/16 06:46:48;;;;;;;3.80;2.90;;;13.30;99.90;;;;;;5034489;28;20418;-83
2024/02/16 06:49:16;;;;;;;5.50;3.30;;;13.30;99.90;;;;;;5012428;28;20188;-81
2024/02/16 06:51:46;;;;;;;3.87;3.13;;;13.30;99.90;;;;;;5012272;28;20758;-80
2024/02/16 06:54:15;;;;;;;4.87;3.20;;;13.30;99.90;;;;;;5049756;28;20975;-84
2024/02/16 06:56:40;;;;;;;3.80;3.40;;;13.30;99.90;;;;;;5050328;28;20470;-83
2024/02/16 06:59:14;;;;;;;2.90;2.50;;;13.30;99.90;;;;;;5020467;28;20461;-84
2024/02/16 07:01:40;;;;;;;6.50;3.23;;;13.30;99.90;;;;;;5033925;28;20651;-82
2024/02/16 07:04:06;;;;;;;3.20;2.90;;;13.30;99.90;;;;;;5026962;28;20474;-82
2024/02/16 07:06:32;;;;;;;8.03;3.37;;;13.30;99.90;;;;;;5049406;28;20441;-80
2024/02/16 07:09:00;;;;;;;7.93;2.90;;;13.30;99.90;;;;;;5050418;28;20441;-82
2024/02/16 07:11:26;;;;;;;4.20;3.77;;;13.30;99.90;;;;;;5040091;28;20779;-83
2024/02/16 07:13:52;;;;;;;3.57;3.20;;;13.30;99.90;;;;;;5047703;28;20435;-82
2024/02/16 07:16:20;;;;;;;4.50;3.07;;;13.30;99.90;;;;;;5030248;28;20840;-86
2024/02/16 07:18:46;;;;;;;4.00;2.93;;;13.30;99.90;;;;;;5019289;28;20527;-86
2024/02/16 07:21:20;;;;;;;3.53;3.23;;;13.30;99.90;;;;;;5010602;28;20501;-81
2024/02/16 07:24:15;;;;;;;6.27;3.47;;;13.30;99.90;;;;;;5050146;28;20597;-81
2024/02/16 07:26:41;;;;;;;2.90;2.63;;;13.30;99.90;;;;;;5047901;28;20415;-82
2024/02/16 07:29:08;;;;;;;6.33;3.20;;;13.30;99.90;;;;;;5015970;28;20441;-82
2024/02/16 07:31:34;;;;;;;4.17;2.70;;;13.30;99.90;;;;;;5032229;28;20430;-83
2024/02/16 07:34:04;;;;;;;3.80;3.30;;;13.30;99.90;;;;;;5015898;28;20438;-81
2024/02/16 07:36:30;;;;;;;3.70;3.40;;;13.30;99.90;;;;;;5002723;28;20435;-82
2024/02/16 07:38:56;;;;;;;3.90;2.80;;;13.30;99.90;;;;;;5032371;28;20539;-82
2024/02/16 07:41:24;;;;;;;4.70;3.67;;;13.30;99.90;;;;;;5032785;28;20514;-82
2024/02/16 07:43:51;;;;;;;5.23;3.43;;;13.30;99.90;;;;;;5030413;28;20566;-81
2024/02/16 07:46:18;;;;;;;4.30;3.53;;;13.30;99.90;;;;;;5023543;28;20481;-81
2024/02/16 07:48:44;;;;;;;3.37;2.80;;;13.30;99.90;;;;;;5014306;28;20423;-81
2024/02/16 07:51:10;;;;;;;4.60;3.00;;;13.30;99.90;;;;;;5052056;28;20419;-82
2024/02/16 07:53:41;;;;;;;5.53;3.10;;;13.30;99.90;;;;;;5061496;28;20493;-82
2024/02/16 07:56:07;;;;;;;3.80;3.43;;;13.30;99.90;;;;;;5040605;28;20419;-82
2024/02/16 07:58:33;;;;;;;3.50;3.20;;;13.30;99.90;;;;;;5036512;28;20514;-83
2024/02/16 08:01:40;;;;;;;3.90;3.50;;;13.30;99.90;;;;;;4991977;28;20502;-82
2024/02/16 08:04:08;;;;;;;3.57;3.23;;;13.30;99.90;;;;;;4947988;28;20539;-83
2024/02/16 08:06:37;;;;;;;5.00;3.10;;;13.30;99.90;;;;;;4977132;28;20513;-81
2024/02/16 08:09:04;;;;;;;3.23;2.77;;;13.30;99.90;;;;;;4995408;28;20582;-82
2024/02/16 08:11:30;;;;;;;3.60;3.30;;;13.30;99.90;;;;;;4995292;28;21370;-81
2024/02/16 08:14:00;;;;;;;4.70;3.33;;;13.30;99.90;;;;;;4947945;28;20438;-81
2024/02/16 08:16:30;;;;;;;3.40;3.07;;;13.30;99.90;;;;;;4977353;28;20520;-81
2024/02/16 08:18:58;;;;;;;5.97;4.00;;;13.30;99.90;;;;;;4989324;28;20441;-82
2024/02/16 08:21:29;;;;;;;4.67;3.33;;;13.30;99.90;;;;;;4987481;28;20445;-81
2024/02/16 08:23:55;;;;;;;5.00;3.20;;;13.30;99.90;;;;;;4971139;28;20508;-80
2024/02/16 08:26:21;;;;;;;7.50;3.37;;;13.30;99.90;;;;;;4973151;28;20457;-81
2024/02/16 08:28:47;;;;;;;4.63;2.97;;;13.40;99.90;;;;;;4972152;28;20430;-82
2024/02/16 08:31:18;;;;;;;4.30;3.13;;;13.40;99.90;;;;;;4975746;28;20448;-83
2024/02/16 08:33:49;;;;;;;3.87;3.10;;;13.40;99.90;;;;;;4991362;28;21007;-83
2024/02/16 08:36:15;;;;;;;5.77;3.63;;;13.40;99.90;;;;;;4978465;28;20793;-83
2024/02/16 08:38:41;;;;;;;6.23;3.50;;;13.40;99.90;;;;;;5023156;28;20451;-81
2024/02/16 08:41:12;;;;;;;3.90;3.40;;;13.40;99.90;;;;;;5029622;28;20439;-81
2024/02/16 08:43:39;;;;;;;3.50;2.93;;;13.40;99.90;;;;;;5022594;28;20586;-80
2024/02/16 08:46:05;;;;;;;4.30;3.40;;;13.40;99.90;;;;;;5017156;28;20536;-80
2024/02/16 08:48:31;;;;;;;3.10;2.80;;;13.40;99.90;;;;;;5029485;28;20423;-82
2024/02/16 08:50:59;;;;;;;3.60;3.10;;;13.40;99.90;;;;;;5027273;28;20506;-82
2024/02/16 08:53:28;;;;;;;2.83;2.63;;;13.40;99.90;;;;;;5048112;28;20534;-82
2024/02/16 08:55:54;;;;;;;8.00;3.53;;;13.40;99.90;;;;;;5019855;28;20473;-84
2024/02/16 08:58:41;;;;;;;4.10;3.40;;;13.40;99.90;;;;;;5039391;28;20431;-85
2024/02/16 09:01:07;;;;;;;5.70;3.20;;;13.40;99.90;;;;;;5027867;28;20508;-83
2024/02/16 09:03:38;;;;;;;8.43;3.20;;;13.40;99.90;;;;;;5014923;28;20919;-83
2024/02/16 09:06:06;;;;;;;4.20;3.30;;;13.40;99.90;;;;;;5014043;28;20478;-82
2024/02/16 09:08:33;;;;;;;6.43;3.80;;;13.40;99.90;;;;;;5029573;28;20525;-82
2024/02/16 09:10:59;;;;;;;7.27;3.23;;;13.40;99.90;;;;;;5048345;28;20518;-82
2024/02/16 09:13:25;;;;;;;4.37;3.10;;;13.60;99.90;;;;;;4997467;28;20477;-82
2024/02/16 09:15:51;;;;;;;4.17;2.97;;;13.40;99.90;;;;;;5014237;28;20591;-83
2024/02/16 09:18:20;;;;;;;8.23;3.57;;;13.40;99.90;;;;;;5031406;28;20449;-82
2024/02/16 09:20:49;;;;;;;5.53;3.20;;;13.40;99.90;;;;;;5006062;28;20470;-83
2024/02/16 09:23:15;;;;;;;5.73;3.43;;;13.40;99.90;;;;;;5014082;28;20435;-83
2024/02/16 09:26:10;;;;;;;7.60;3.60;;;13.40;99.90;;;;;;5049832;28;20872;-82
2024/02/16 09:28:43;;;;;;;3.80;3.50;;;13.50;99.90;;;;;;5012853;28;20679;-83
2024/02/16 09:31:36;;;;;;;7.90;3.10;;;13.50;99.90;;;;;;5034891;28;20446;-82
2024/02/16 09:34:07;;;;;;;3.83;3.23;;;13.50;99.90;;;;;;5048196;28;20418;-82
2024/02/16 09:36:35;;;;;;;6.90;3.40;;;13.50;99.90;;;;;;5031379;28;20469;-82
2024/02/16 09:39:01;;;;;;;4.53;3.60;;;13.50;99.90;;;;;;5026757;28;20455;-83
2024/02/16 09:41:28;;;;;;;6.70;3.47;;;13.50;99.90;;;;;;5016152;28;20418;-84
2024/02/16 09:43:57;;;;;;;4.40;3.77;;;13.50;99.90;;;;;;5030622;28;20484;-84
2024/02/16 09:46:26;;;;;;;3.70;3.20;;;13.50;99.90;;;;;;5016457;28;20519;-82
2024/02/16 09:48:55;;;;;;;3.47;3.17;;;13.50;99.90;;;;;;5015600;28;20427;-82
2024/02/16 09:51:29;;;;;;;3.50;3.17;;;13.50;99.90;;;;;;5051208;28;20465;-83
2024/02/16 09:53:55;;;;;;;6.53;3.50;;;13.50;99.90;;;;;;5046367;28;20489;-86
2024/02/16 09:56:24;;;;;;;5.83;3.83;;;13.50;99.90;;;;;;5033456;28;21095;-84
2024/02/16 09:58:54;;;;;;;5.73;3.60;;;13.60;99.90;;;;;;5010275;28;20459;-84
2024/02/16 10:01:22;;;;;;;4.40;3.33;;;13.50;99.90;;;;;;5031085;28;20492;-83
2024/02/16 10:03:49;;;;;;;5.10;4.00;;;13.60;99.90;;;;;;5049503;28;20470;-83
2024/02/16 10:06:17;;;;;;;4.70;3.50;;;13.60;99.90;;;;;;5034151;28;20450;-84
2024/02/16 10:08:54;;;;;;;4.93;3.27;;;13.60;99.90;;;;;;5014374;28;20430;-84
2024/02/16 10:11:24;;;;;;;6.53;4.00;;;13.60;99.90;;;;;;5031569;28;20431;-84
2024/02/16 10:13:59;;;;;;;3.27;3.00;;;13.60;99.90;;;;;;5031567;28;20442;-83
2024/02/16 10:16:25;;;;;;;5.10;3.37;;;13.60;99.90;;;;;;5051939;28;20457;-82
2024/02/16 10:19:17;;;;;;;4.73;3.10;;;13.60;99.90;;;;;;5029973;28;20454;-82
2024/02/16 10:21:43;;;;;;;3.63;3.03;;;13.60;99.90;;;;;;5013725;28;20616;-83
2024/02/16 10:24:11;;;;;;;5.30;3.60;;;13.60;99.90;;;;;;5031728;28;20482;-83
2024/02/16 10:26:40;;;;;;;4.43;3.47;;;13.60;99.90;;;;;;5013025;28;20903;-83
2024/02/16 10:29:11;;;;;;;4.80;3.30;;;13.60;99.90;;;;;;5030736;28;20426;-82
2024/02/16 10:31:39;;;;;;;4.30;3.43;;;13.60;99.90;;;;;;5017350;28;20946;-80
2024/02/16 10:34:09;;;;;;;3.47;3.17;;;13.70;99.90;;;;;;5016823;28;20431;-80
2024/02/16 10:36:36;;;;;;;5.07;3.67;;;13.70;99.90;;;;;;5030548;28;20419;-83
2024/02/16 10:39:04;;;;;;;4.90;3.53;;;13.70;99.90;;;;;;5026196;28;20423;-82
2024/02/16 10:41:34;;;;;;;3.73;3.40;;;13.70;99.90;;;;;;5020000;28;20442;-82
2024/02/16 10:44:05;;;;;;;5.00;3.60;;;13.70;99.90;;;;;;5029854;28;20498;-82
2024/02/16 10:46:36;;;;;;;6.20;3.20;;;13.70;99.90;;;;;;5047570;28;20541;-81
2024/02/16 10:49:07;;;;;;;4.27;3.70;;;13.70;99.90;;;;;;5021499;28;20462;-82
2024/02/16 10:51:48;;;;;;;6.50;3.83;;;13.70;99.90;;;;;;5012974;28;20418;-82
2024/02/16 10:54:18;;;;;;;4.70;3.63;;;13.70;99.90;;;;;;5024419;28;20483;-82
2024/02/16 10:57:09;;;;;;;5.10;3.67;;;13.70;99.90;;;;;;5019142;28;20441;-82
2024/02/16 11:00:07;;;;;;;3.77;3.47;;;13.80;99.90;;;;;;5029244;28;20458;-82
2024/02/16 11:02:33;;;;;;;6.07;5.30;;;13.70;99.90;;;;;;5029118;28;20454;-82
2024/02/16 11:04:59;;;;;;;3.80;3.50;;;13.70;99.90;;;;;;5030094;28;20470;-81
2024/02/16 11:07:27;;;;;;;4.60;3.50;;;13.70;99.90;;;;;;4998090;28;20799;-81
2024/02/16 11:10:00;;;;;;;5.07;3.70;;;13.80;99.90;;;;;;5038472;28;20423;-81
2024/02/16 11:12:35;;;;;;;4.77;3.80;;;13.80;99.90;;;;;;5029275;28;20509;-82
2024/02/16 11:15:01;;;;;;;4.23;3.77;;;13.80;99.90;;;;;;5037534;28;20425;-83
2024/02/16 11:17:35;;;;;;;5.33;3.53;;;13.80;99.90;;;;;;5013902;28;20430;-83
2024/02/16 11:20:07;;;;;;;4.87;3.43;;;13.80;99.90;;;;;;5018085;28;20450;-88
2024/02/16 11:22:40;;;;;;;4.00;3.30;;;13.80;99.90;;;;;;5034307;28;20419;-84
2024/02/16 11:25:09;;;;;;;4.33;3.33;;;13.80;99.90;;;;;;5037880;28;20528;-83
2024/02/16 11:27:35;;;;;;;5.73;3.37;;;13.80;99.90;;;;;;5023123;28;20762;-83
2024/02/16 11:30:02;;;;;;;5.77;3.10;;;13.80;99.90;;;;;;5059150;28;21165;-84
2024/02/16 11:32:34;;;;;;;3.70;3.40;;;13.80;99.90;;;;;;5016535;28;20532;-83
2024/02/16 11:35:07;;;;;;;5.87;3.57;;;13.80;99.90;;;;;;5033153;28;20450;-84
2024/02/16 11:37:34;;;;;;;4.17;3.73;;;13.80;99.90;;;;;;5033053;28;20485;-83
2024/02/16 11:40:00;;;;;;;4.10;3.70;;;13.80;99.90;;;;;;5050654;28;20453;-83
2024/02/16 11:42:26;;;;;;;5.70;3.40;;;13.80;99.90;;;;;;5050566;28;20431;-83
2024/02/16 11:45:20;;;;;;;7.33;3.53;;;13.80;99.90;;;;;;5051299;28;20884;-82
2024/02/16 11:47:46;;;;;;;4.40;3.00;;;13.80;99.90;;;;;;5034271;28;20562;-83
2024/02/16 11:50:16;;;;;;;4.40;3.30;;;13.80;99.90;;;;;;5050892;28;20905;-80
2024/02/16 11:52:42;;;;;;;4.10;3.50;;;13.90;99.90;;;;;;5016094;28;20181;-84
2024/02/16 11:55:11;;;;;;;4.90;3.50;;;13.90;99.90;;;;;;5037115;28;20439;-84
2024/02/16 11:57:38;;;;;;;3.37;3.07;;;13.90;99.90;;;;;;5052892;28;20425;-82
2024/02/16 12:00:30;;;;;;;7.67;3.97;;;13.90;99.90;;;;;;5027189;28;21014;-83
2024/02/16 12:03:01;;;;;;;9.23;4.27;;;13.90;99.90;;;;;;5032600;28;20469;-82
2024/02/16 12:05:27;;;;;;;9.17;4.10;;;13.90;99.90;;;;;;5035468;28;20437;-83
2024/02/16 12:07:55;;;;;;;7.57;4.53;;;13.90;99.90;;;;;;5048814;28;20497;-82
2024/02/16 12:10:21;;;;;;;7.47;4.57;;;13.90;99.90;;;;;;5031150;28;20509;-82
2024/02/16 12:12:48;;;;;;;6.93;4.50;;;13.90;99.90;;;;;;5033222;28;20501;-84
2024/02/16 12:15:17;;;;;;;4.70;3.70;;;14.00;99.90;;;;;;5036618;28;20423;-85
2024/02/16 12:17:45;;;;;;;7.17;4.80;;;13.90;99.90;;;;;;5017719;28;20444;-83
2024/02/16 12:20:47;;;;;;;6.27;3.47;;;13.90;99.90;;;;;;5055659;28;20453;-85
2024/02/16 12:23:14;;;;;;;6.23;4.30;;;14.00;99.90;;;;;;5033116;28;20537;-82
2024/02/16 12:25:40;;;;;;;8.00;4.33;;;14.00;99.90;;;;;;5001798;28;20746;-82
2024/02/16 12:28:07;;;;;;;7.80;3.90;;;14.00;99.90;;;;;;5032025;28;20451;-80
2024/02/16 12:30:39;;;;;;;6.83;4.33;;;14.00;99.90;;;;;;5049507;28;20423;-80
2024/02/16 12:33:06;;;;;;;4.93;4.43;;;14.00;99.90;;;;;;5035232;28;20426;-80
2024/02/16 12:35:34;;;;;;;7.70;4.23;;;14.00;99.90;;;;;;5031851;28;20430;-80
2024/02/16 12:38:03;;;;;;;8.60;4.30;;;14.00;99.90;;;;;;5002467;28;20442;-81
2024/02/16 12:40:29;;;;;;;6.63;4.57;;;14.00;99.90;;;;;;5028744;28;20422;-82
2024/02/16 12:42:57;;;;;;;5.90;4.40;;;14.00;99.90;;;;;;5049690;28;20427;-80
2024/02/16 12:45:23;;;;;;;7.10;4.60;;;14.00;99.90;;;;;;5016573;28;20557;-80
2024/02/16 12:47:50;;;;;;;6.63;4.60;;;14.10;99.90;;;;;;5049257;28;20741;-80
2024/02/16 12:50:21;;;;;;;8.03;4.87;;;14.10;99.90;;;;;;5049631;28;20437;-83
2024/02/16 12:52:49;;;;;;;7.97;4.93;;;14.10;99.90;;;;;;5054056;28;21210;-82
2024/02/16 12:55:16;;;;;;;8.13;5.20;;;14.10;99.90;;;;;;5048839;28;20447;-83
2024/02/16 12:57:41;;;;;;;7.37;4.67;;;14.10;99.90;;;;;;5048060;28;20223;-81